Time;durP1;ratioP1;P1;durP2;ratioP2;P2;SDS_P1;SDS_P2;PMS_P1;PMS_P2;Temp;Humidity;BMP_temperature;BMP_pressure;BME280_temperature;BME280_humidity;BME280_pressure;Samples;Min_cycle;Max_cycle;Signal;HPM_P1;HPM_P2
2022/10/27 00:00:13;;;;;;;15.48;10.82;;;14.00;99.90;;;;;;5003680;28;20033;-62
2022/10/27 00:02:59;;;;;;;12.70;10.02;;;13.90;99.90;;;;;;5017499;28;20044;-61
2022/10/27 00:05:46;;;;;;;19.17;12.27;;;13.90;99.90;;;;;;5031128;28;20025;-61
2022/10/27 00:08:35;;;;;;;15.63;11.02;;;14.00;99.90;;;;;;5014810;28;20124;-62
2022/10/27 00:11:21;;;;;;;15.70;11.23;;;13.90;99.90;;;;;;5031070;28;20064;-64
2022/10/27 00:14:07;;;;;;;15.98;10.27;;;14.00;99.90;;;;;;5004059;28;20029;-61
2022/10/27 00:16:58;;;;;;;14.00;10.27;;;13.90;99.90;;;;;;5029728;28;20025;-63
2022/10/27 00:19:44;;;;;;;13.15;9.88;;;13.90;99.90;;;;;;5026975;28;20041;-60
2022/10/27 00:22:30;;;;;;;16.48;11.32;;;13.80;99.90;;;;;;5019651;28;20030;-61
2022/10/27 00:25:16;;;;;;;12.75;10.93;;;13.90;99.90;;;;;;5031279;28;20025;-61
2022/10/27 00:28:02;;;;;;;11.15;9.90;;;13.80;99.90;;;;;;5015673;28;20092;-61
2022/10/27 00:30:55;;;;;;;15.68;11.27;;;13.80;99.90;;;;;;5002141;28;20029;-62
2022/10/27 00:33:42;;;;;;;18.83;11.82;;;13.70;99.90;;;;;;5016447;28;20406;-61
2022/10/27 00:36:28;;;;;;;13.93;11.05;;;13.70;99.90;;;;;;5031061;28;20429;-61
2022/10/27 00:39:14;;;;;;;13.63;11.02;;;13.70;99.90;;;;;;5029611;28;20049;-61
2022/10/27 00:42:01;;;;;;;15.40;10.88;;;13.70;99.90;;;;;;5029643;28;20040;-60
2022/10/27 00:44:47;;;;;;;16.92;11.13;;;13.70;99.90;;;;;;5030356;28;20033;-59
2022/10/27 00:47:36;;;;;;;13.93;11.52;;;13.70;99.90;;;;;;5015252;28;20037;-60
2022/10/27 00:50:24;;;;;;;19.02;11.82;;;13.70;99.90;;;;;;5030690;28;20052;-60
2022/10/27 00:53:10;;;;;;;15.38;11.73;;;13.70;99.90;;;;;;5030554;28;20127;-60
2022/10/27 00:55:57;;;;;;;17.92;11.68;;;13.70;99.90;;;;;;5030634;28;20033;-61
2022/10/27 00:58:45;;;;;;;19.83;12.15;;;13.80;99.90;;;;;;5015561;28;20030;-62
2022/10/27 01:01:32;;;;;;;18.25;11.65;;;13.80;99.90;;;;;;5029489;28;20041;-61
2022/10/27 01:04:32;;;;;;;15.52;12.52;;;13.80;99.90;;;;;;4983301;28;20516;-61
2022/10/27 01:07:19;;;;;;;14.57;10.90;;;13.80;99.90;;;;;;5020841;28;20537;-61
2022/10/27 01:10:05;;;;;;;13.35;10.95;;;13.80;99.90;;;;;;5016073;28;20029;-61
2022/10/27 01:12:53;;;;;;;18.92;11.73;;;13.80;99.90;;;;;;5029483;28;20041;-62
2022/10/27 01:16:00;;;;;;;15.02;11.25;;;13.80;99.90;;;;;;5016049;28;20030;-62
2022/10/27 01:18:56;;;;;;;14.80;11.98;;;13.80;99.90;;;;;;5030212;28;20029;-61
2022/10/27 01:22:11;;;;;;;13.38;11.13;;;13.80;99.90;;;;;;5024083;28;20026;-62
2022/10/27 01:25:22;;;;;;;15.90;10.77;;;13.70;99.90;;;;;;5028962;28;20021;-61
2022/10/27 01:28:31;;;;;;;14.07;10.32;;;13.80;99.90;;;;;;5029391;28;20048;-60
2022/10/27 01:31:28;;;;;;;12.73;10.60;;;13.80;99.90;;;;;;5018802;28;20034;-61
2022/10/27 01:34:34;;;;;;;13.57;10.65;;;13.80;99.90;;;;;;5027892;28;20041;-61
2022/10/27 01:37:32;;;;;;;16.63;12.00;;;13.70;99.90;;;;;;5029928;28;20108;-59
2022/10/27 01:40:18;;;;;;;15.00;10.73;;;13.80;99.90;;;;;;5027899;28;20025;-61
2022/10/27 01:43:10;;;;;;;14.43;11.25;;;13.80;99.90;;;;;;5027960;28;20068;-59
2022/10/27 01:45:57;;;;;;;18.42;12.73;;;13.80;99.90;;;;;;5024113;28;20025;-60
2022/10/27 01:48:45;;;;;;;22.77;12.25;;;13.80;99.90;;;;;;5023106;28;20029;-58
2022/10/27 01:51:31;;;;;;;17.90;11.32;;;13.80;99.90;;;;;;5039467;28;20087;-60
2022/10/27 01:54:19;;;;;;;13.75;11.32;;;13.80;99.90;;;;;;5016824;28;20095;-59
2022/10/27 01:57:14;;;;;;;18.95;12.27;;;13.90;99.90;;;;;;5028347;28;20040;-61
2022/10/27 02:00:04;;;;;;;19.90;11.00;;;13.90;99.90;;;;;;5029080;28;20389;-60
2022/10/27 02:03:00;;;;;;;12.07;9.43;;;13.80;99.90;;;;;;5015510;28;20029;-60
2022/10/27 02:05:50;;;;;;;10.43;9.35;;;13.80;99.90;;;;;;5017861;28;20029;-59
2022/10/27 02:08:55;;;;;;;12.45;9.02;;;13.70;99.90;;;;;;5029913;28;20017;-61
2022/10/27 02:11:45;;;;;;;15.02;10.30;;;13.70;99.90;;;;;;5029191;28;20493;-61
2022/10/27 02:14:33;;;;;;;15.57;10.60;;;13.60;99.90;;;;;;5009667;28;20490;-60
2022/10/27 02:17:23;;;;;;;12.00;9.55;;;13.70;99.90;;;;;;5010018;28;20076;-59
2022/10/27 02:20:22;;;;;;;12.63;8.90;;;13.60;99.90;;;;;;5014008;28;20026;-61
2022/10/27 02:23:16;;;;;;;12.98;9.63;;;13.50;99.90;;;;;;5015032;28;20528;-61
2022/10/27 02:26:08;;;;;;;13.70;10.43;;;13.50;99.90;;;;;;5009402;28;20066;-62
2022/10/27 02:29:05;;;;;;;14.15;8.63;;;13.50;99.90;;;;;;5019234;28;20030;-62
2022/10/27 02:31:55;;;;;;;14.18;8.60;;;13.40;99.90;;;;;;5029846;28;20043;-61
2022/10/27 02:34:43;;;;;;;12.07;9.52;;;13.40;99.90;;;;;;5029782;28;20026;-61
2022/10/27 02:37:38;;;;;;;14.55;9.45;;;13.40;99.90;;;;;;5026197;28;20397;-61
2022/10/27 02:40:24;;;;;;;;;;;13.40;99.90;;;;;;5029276;28;20033;-60
2022/10/27 02:43:10;;;;;;;12.95;10.27;;;13.30;99.90;;;;;;5030373;28;19909;-60
2022/10/27 02:45:56;;;;;;;14.65;10.40;;;13.30;99.90;;;;;;4996822;28;20065;-61
2022/10/27 02:48:42;;;;;;;12.88;9.82;;;13.40;99.90;;;;;;5013529;28;20545;-61
2022/10/27 02:51:28;;;;;;;11.73;10.07;;;13.40;99.90;;;;;;5014013;28;20025;-61
2022/10/27 02:54:14;;;;;;;12.02;9.43;;;13.30;99.90;;;;;;5030773;28;20103;-61
2022/10/27 02:57:00;;;;;;;10.85;8.70;;;13.30;99.90;;;;;;5031985;28;20171;-60
2022/10/27 02:59:46;;;;;;;13.35;10.32;;;13.30;99.90;;;;;;5032771;28;20030;-63
2022/10/27 03:02:32;;;;;;;11.50;9.13;;;13.20;99.90;;;;;;5018604;28;20120;-60
2022/10/27 03:05:18;;;;;;;12.50;8.98;;;13.20;99.90;;;;;;5018621;28;20052;-60
2022/10/27 03:08:04;;;;;;;10.40;8.30;;;13.10;99.90;;;;;;5017238;28;20036;-62
2022/10/27 03:10:50;;;;;;;10.82;8.63;;;13.10;99.90;;;;;;5017789;28;20037;-60
2022/10/27 03:13:36;;;;;;;9.02;7.80;;;13.10;99.90;;;;;;5012860;28;20034;-61
2022/10/27 03:16:22;;;;;;;12.95;9.35;;;13.10;99.90;;;;;;5024748;28;20113;-59
2022/10/27 03:19:08;;;;;;;11.98;8.63;;;13.10;99.90;;;;;;5017363;28;20029;-62
2022/10/27 03:21:54;;;;;;;13.57;7.85;;;13.10;99.90;;;;;;5015538;28;20065;-58
2022/10/27 03:24:40;;;;;;;12.82;9.18;;;13.10;99.90;;;;;;5018522;28;20088;-59
2022/10/27 03:27:26;;;;;;;11.57;8.65;;;13.10;99.90;;;;;;5044190;28;20044;-60
2022/10/27 03:30:14;;;;;;;11.82;8.77;;;13.10;99.90;;;;;;5042814;28;20037;-59
2022/10/27 03:33:00;;;;;;;10.10;8.80;;;13.10;99.90;;;;;;5030677;28;20402;-59
2022/10/27 03:35:46;;;;;;;10.50;9.40;;;13.10;99.90;;;;;;4999254;28;20692;-59
2022/10/27 03:38:32;;;;;;;15.70;9.00;;;13.10;99.90;;;;;;4989596;28;20148;-58
2022/10/27 03:41:18;;;;;;;8.63;7.15;;;13.00;99.90;;;;;;5028046;28;20033;-58
2022/10/27 03:44:04;;;;;;;8.93;7.07;;;13.00;99.90;;;;;;5032247;28;20045;-57
2022/10/27 03:46:50;;;;;;;9.43;7.57;;;12.90;99.90;;;;;;5031627;28;20033;-60
2022/10/27 03:49:36;;;;;;;8.30;6.68;;;12.80;99.90;;;;;;5008984;28;20064;-59
2022/10/27 03:52:22;;;;;;;10.80;8.25;;;12.70;99.90;;;;;;5030889;28;20041;-59
2022/10/27 03:55:08;;;;;;;8.75;7.43;;;12.70;99.90;;;;;;5031181;28;20037;-58
2022/10/27 03:57:54;;;;;;;10.23;8.18;;;12.60;99.90;;;;;;5030623;28;20061;-62
2022/10/27 04:00:40;;;;;;;10.40;8.25;;;12.60;99.90;;;;;;5030784;28;20383;-60
2022/10/27 04:03:26;;;;;;;14.98;9.90;;;12.60;99.90;;;;;;5030349;28;20076;-61
2022/10/27 04:06:12;;;;;;;11.75;10.27;;;12.70;99.90;;;;;;5030302;28;20560;-60
2022/10/27 04:08:58;;;;;;;11.88;10.07;;;12.70;99.90;;;;;;5016138;28;20030;-60
2022/10/27 04:11:44;;;;;;;17.50;11.50;;;12.70;99.90;;;;;;5029479;28;20446;-60
2022/10/27 04:14:30;;;;;;;17.08;12.27;;;12.70;99.90;;;;;;5012275;28;20034;-59
2022/10/27 04:17:19;;;;;;;17.48;12.85;;;12.80;99.90;;;;;;5025598;28;20033;-60
2022/10/27 04:20:05;;;;;;;18.83;12.82;;;12.90;99.90;;;;;;5016772;28;20164;-60
2022/10/27 04:22:53;;;;;;;17.95;13.57;;;12.90;99.90;;;;;;5030042;28;20033;-61
2022/10/27 04:25:39;;;;;;;16.70;13.30;;;12.90;99.90;;;;;;5015853;28;20049;-60
2022/10/27 04:28:25;;;;;;;19.88;14.18;;;13.00;99.90;;;;;;5030143;28;20064;-60
2022/10/27 04:31:11;;;;;;;22.67;13.45;;;13.00;99.90;;;;;;5029791;28;20029;-61
2022/10/27 04:33:58;;;;;;;13.25;10.48;;;13.00;99.90;;;;;;5015915;28;20049;-57
2022/10/27 04:36:43;;;;;;;11.80;9.63;;;13.00;99.90;;;;;;5030259;28;20071;-59
2022/10/27 04:39:29;;;;;;;11.88;9.88;;;12.90;99.90;;;;;;5031295;28;20021;-61
2022/10/27 04:42:15;;;;;;;11.48;9.40;;;12.80;99.90;;;;;;5015629;28;20635;-58
2022/10/27 04:45:01;;;;;;;11.27;9.15;;;12.60;99.90;;;;;;5031109;28;20225;-62
2022/10/27 04:47:47;;;;;;;12.52;8.80;;;12.50;99.90;;;;;;5030451;28;20025;-60
2022/10/27 04:50:33;;;;;;;12.55;10.05;;;12.40;99.90;;;;;;5016771;28;20029;-60
2022/10/27 04:53:19;;;;;;;11.63;8.88;;;12.30;99.90;;;;;;5011665;28;20355;-62
2022/10/27 04:56:05;;;;;;;11.30;9.10;;;12.20;99.90;;;;;;4986806;28;20462;-61
2022/10/27 04:58:51;;;;;;;10.70;8.07;;;12.20;99.90;;;;;;5031394;28;20029;-58
2022/10/27 05:01:38;;;;;;;11.77;8.07;;;12.10;99.90;;;;;;5030012;28;20109;-60
2022/10/27 05:04:24;;;;;;;9.50;7.57;;;12.10;99.90;;;;;;5017654;28;20033;-60
2022/10/27 05:07:10;;;;;;;11.02;7.65;;;12.10;99.90;;;;;;5010025;28;20026;-60
2022/10/27 05:09:56;;;;;;;8.55;7.65;;;12.10;99.90;;;;;;5022789;28;20025;-61
2022/10/27 05:12:42;;;;;;;11.45;7.65;;;12.00;99.90;;;;;;5002984;28;20111;-57
2022/10/27 05:15:28;;;;;;;8.48;7.03;;;12.00;99.90;;;;;;5029215;28;20040;-60
2022/10/27 05:18:14;;;;;;;6.85;6.10;;;12.00;99.90;;;;;;5015632;28;20025;-62
2022/10/27 05:21:00;;;;;;;8.80;6.40;;;12.00;99.90;;;;;;5029858;28;20029;-58
2022/10/27 05:23:46;;;;;;;10.07;7.68;;;11.90;99.90;;;;;;5015142;28;20099;-60
2022/10/27 05:26:32;;;;;;;11.85;6.90;;;11.90;99.90;;;;;;5030020;28;20030;-60
2022/10/27 05:29:18;;;;;;;9.25;6.22;;;12.00;99.90;;;;;;5003370;28;20029;-61
2022/10/27 05:32:04;;;;;;;12.48;8.02;;;11.90;99.90;;;;;;5030057;28;20026;-59
2022/10/27 05:34:50;;;;;;;11.13;8.00;;;11.90;99.90;;;;;;5015894;28;20025;-59
2022/10/27 05:37:36;;;;;;;12.57;7.07;;;11.90;99.90;;;;;;5014926;28;20101;-61
2022/10/27 05:40:22;;;;;;;8.70;6.85;;;11.80;99.90;;;;;;5029543;28;20032;-60
2022/10/27 05:43:08;;;;;;;9.00;7.13;;;11.80;99.90;;;;;;5015704;28;20037;-62
2022/10/27 05:45:54;;;;;;;9.82;7.47;;;11.80;99.90;;;;;;5029762;28;20124;-64
2022/10/27 05:48:41;;;;;;;9.63;7.13;;;11.70;99.90;;;;;;5030208;28;20532;-60
2022/10/27 05:51:27;;;;;;;9.23;6.72;;;11.70;99.90;;;;;;5015885;28;20112;-63
2022/10/27 05:54:13;;;;;;;7.95;6.65;;;11.70;99.90;;;;;;5016434;28;20498;-60
2022/10/27 05:56:58;;;;;;;9.80;8.18;;;11.70;99.90;;;;;;5015537;28;20025;-60
2022/10/27 05:59:44;;;;;;;12.05;7.28;;;11.70;99.90;;;;;;5029934;28;20525;-60
2022/10/27 06:02:30;;;;;;;11.68;7.55;;;11.70;99.90;;;;;;5006137;28;20462;-63
2022/10/27 06:05:16;;;;;;;24.55;8.68;;;11.80;99.90;;;;;;5029600;28;20645;-61
2022/10/27 06:08:02;;;;;;;16.30;7.57;;;11.70;99.90;;;;;;5017654;28;20489;-61
2022/10/27 06:10:48;;;;;;;10.27;7.03;;;11.80;99.90;;;;;;5030356;28;20029;-65
2022/10/27 06:13:37;;;;;;;9.52;6.50;;;11.80;99.90;;;;;;5002223;28;20041;-65
2022/10/27 06:16:26;;;;;;;14.32;9.82;;;11.80;99.90;;;;;;5002523;28;20121;-62
2022/10/27 06:19:12;;;;;;;18.15;13.75;;;11.80;99.90;;;;;;5029898;28;20037;-63
2022/10/27 06:21:58;;;;;;;36.45;24.67;;;11.80;99.90;;;;;;5029075;28;20539;-63
2022/10/27 06:24:44;;;;;;;26.30;16.90;;;11.80;99.90;;;;;;5001431;28;20106;-61
2022/10/27 06:27:30;;;;;;;14.85;9.57;;;11.80;99.90;;;;;;5029218;28;20044;-60
2022/10/27 06:30:16;;;;;;;10.38;7.88;;;11.90;99.90;;;;;;5015031;28;20032;-64
2022/10/27 06:33:05;;;;;;;16.70;7.05;;;11.90;99.90;;;;;;5014184;28;20405;-63
2022/10/27 06:35:51;;;;;;;8.35;6.22;;;12.00;99.90;;;;;;5020130;28;20057;-64
2022/10/27 06:38:37;;;;;;;9.40;7.20;;;12.00;99.90;;;;;;4999478;28;20068;-62
2022/10/27 06:41:23;;;;;;;17.30;11.38;;;12.10;99.90;;;;;;5031921;28;20022;-61
2022/10/27 06:44:09;;;;;;;27.92;12.60;;;12.10;99.90;;;;;;5018984;28;20092;-60
2022/10/27 06:46:55;;;;;;;19.95;7.53;;;12.10;99.90;;;;;;5020351;28;20045;-62
2022/10/27 06:49:41;;;;;;;7.97;6.95;;;12.20;99.90;;;;;;5045680;28;20022;-61
2022/10/27 06:52:27;;;;;;;8.77;6.57;;;12.20;99.90;;;;;;5047164;28;20501;-61
2022/10/27 06:55:13;;;;;;;9.05;7.15;;;12.20;99.90;;;;;;5036936;28;20030;-61
2022/10/27 06:57:59;;;;;;;11.88;7.38;;;12.20;99.90;;;;;;5033370;28;20033;-62
2022/10/27 07:00:45;;;;;;;8.82;7.00;;;12.30;99.90;;;;;;5019628;28;20056;-60
2022/10/27 07:03:33;;;;;;;10.90;7.50;;;12.30;99.90;;;;;;5017941;28;20049;-61
2022/10/27 07:06:19;;;;;;;10.30;7.85;;;12.30;99.90;;;;;;5021511;28;20402;-61
2022/10/27 07:09:05;;;;;;;10.57;7.30;;;12.30;99.90;;;;;;4998097;28;20036;-57
2022/10/27 07:11:51;;;;;;;10.90;7.68;;;12.30;99.90;;;;;;5012240;28;20030;-59
2022/10/27 07:14:37;;;;;;;20.08;13.43;;;12.50;99.90;;;;;;5028116;28;20084;-63
2022/10/27 07:17:23;;;;;;;32.15;21.75;;;12.50;99.90;;;;;;5031947;28;20163;-60
2022/10/27 07:20:10;;;;;;;26.10;13.05;;;12.50;99.90;;;;;;5031632;28;20429;-59
2022/10/27 07:22:57;;;;;;;14.95;9.18;;;12.50;99.90;;;;;;5031720;28;20025;-60
2022/10/27 07:25:46;;;;;;;15.50;8.77;;;12.60;99.90;;;;;;5032348;28;20057;-61
2022/10/27 07:28:32;;;;;;;12.52;7.63;;;12.70;99.90;;;;;;5032124;28;20113;-62
2022/10/27 07:31:18;;;;;;;9.05;7.25;;;12.70;99.90;;;;;;5032115;28;20403;-62
2022/10/27 07:34:04;;;;;;;9.10;7.53;;;12.80;99.90;;;;;;5036259;28;20042;-60
2022/10/27 07:36:50;;;;;;;13.18;8.15;;;12.90;99.90;;;;;;5031202;28;20508;-62
2022/10/27 07:39:36;;;;;;;11.10;8.55;;;13.00;99.90;;;;;;5032004;28;20382;-59
2022/10/27 07:42:22;;;;;;;14.90;9.52;;;13.10;99.90;;;;;;5031899;28;20512;-61
2022/10/27 07:45:08;;;;;;;13.10;9.98;;;13.20;99.90;;;;;;5011785;28;20420;-62
2022/10/27 07:47:56;;;;;;;14.88;11.13;;;13.40;99.90;;;;;;5015723;28;20025;-60
2022/10/27 07:50:43;;;;;;;14.93;13.10;;;13.50;99.90;;;;;;5032500;28;20029;-60
2022/10/27 07:53:29;;;;;;;16.02;12.43;;;13.50;99.90;;;;;;5030496;28;20064;-60
2022/10/27 07:56:16;;;;;;;18.85;13.70;;;13.70;99.90;;;;;;5016345;28;20036;-62
2022/10/27 07:59:03;;;;;;;23.33;13.88;;;13.80;99.90;;;;;;5031235;28;20095;-60
2022/10/27 08:01:49;;;;;;;22.02;14.13;;;13.90;99.90;;;;;;5031574;28;20029;-60
2022/10/27 08:04:34;;;;;;;19.85;13.18;;;14.00;99.90;;;;;;5030418;28;20052;-61
2022/10/27 08:07:20;;;;;;;19.13;15.27;;;14.10;99.90;;;;;;5030670;28;20041;-59
2022/10/27 08:10:07;;;;;;;20.85;16.88;;;14.20;99.90;;;;;;5030702;28;20112;-60
2022/10/27 08:12:53;;;;;;;32.80;18.85;;;14.30;99.90;;;;;;5030942;28;20038;-61
2022/10/27 08:15:39;;;;;;;19.52;13.65;;;14.40;99.90;;;;;;5030165;28;20029;-60
2022/10/27 08:18:25;;;;;;;23.80;14.73;;;14.50;99.90;;;;;;5030388;28;20453;-62
2022/10/27 08:21:11;;;;;;;23.48;14.45;;;14.60;99.90;;;;;;5030029;28;20143;-62
2022/10/27 08:23:57;;;;;;;19.00;14.05;;;14.70;99.90;;;;;;5016393;28;20048;-61
2022/10/27 08:26:43;;;;;;;19.27;13.30;;;14.80;99.90;;;;;;5030837;28;20037;-62
2022/10/27 08:29:29;;;;;;;16.27;12.75;;;14.80;99.90;;;;;;5031103;28;20392;-59
2022/10/27 08:32:15;;;;;;;17.17;13.63;;;14.90;99.90;;;;;;5029713;28;20041;-58
2022/10/27 08:35:01;;;;;;;18.80;12.80;;;14.90;99.90;;;;;;4997130;28;20060;-63
2022/10/27 08:37:47;;;;;;;15.90;12.45;;;15.00;99.90;;;;;;5008950;28;20025;-59
2022/10/27 08:40:47;;;;;;;19.25;14.55;;;15.00;99.90;;;;;;5029863;28;20155;-60
2022/10/27 08:43:33;;;;;;;22.02;13.68;;;15.00;99.90;;;;;;5030872;28;20033;-62
2022/10/27 08:46:46;;;;;;;16.33;12.50;;;15.10;99.90;;;;;;5015440;28;20095;-60
2022/10/27 08:49:56;;;;;;;14.88;11.73;;;15.30;99.90;;;;;;5030795;28;20036;-59
2022/10/27 08:52:48;;;;;;;14.45;11.40;;;15.30;99.90;;;;;;5031183;28;20145;-61
2022/10/27 08:55:43;;;;;;;15.38;12.30;;;15.40;99.90;;;;;;5030854;28;20033;-61
2022/10/27 08:58:47;;;;;;;15.43;11.52;;;15.40;99.90;;;;;;5011408;28;20029;-65
2022/10/27 09:01:41;;;;;;;16.00;11.45;;;15.40;99.90;;;;;;5022035;28;20106;-59
2022/10/27 09:04:43;;;;;;;15.68;11.82;;;15.40;99.90;;;;;;5030592;28;20025;-59
2022/10/27 09:07:41;;;;;;;18.83;12.50;;;15.60;99.90;;;;;;5029685;28;20141;-58
2022/10/27 09:11:07;;;;;;;13.18;11.88;;;15.70;99.90;;;;;;5030265;28;20025;-61
2022/10/27 09:14:16;;;;;;;15.77;10.82;;;15.80;99.90;;;;;;5029717;28;20456;-61
2022/10/27 09:17:13;;;;;;;11.43;9.75;;;16.00;99.90;;;;;;5029774;28;20107;-59
2022/10/27 09:20:06;;;;;;;11.38;9.20;;;16.20;99.90;;;;;;5030400;28;20454;-61
2022/10/27 09:22:56;;;;;;;13.20;9.27;;;16.30;99.90;;;;;;5030156;28;20490;-60
2022/10/27 09:25:44;;;;;;;13.82;9.00;;;16.30;99.90;;;;;;5030144;28;20028;-60
2022/10/27 09:28:31;;;;;;;13.98;9.30;;;16.50;99.90;;;;;;5028764;28;20032;-62
2022/10/27 09:31:46;;;;;;;10.27;9.18;;;16.50;99.90;;;;;;5029532;28;20083;-63
2022/10/27 09:34:36;;;;;;;14.73;9.93;;;16.60;99.90;;;;;;5011018;28;20067;-60
2022/10/27 09:37:23;;;;;;;14.38;9.18;;;16.60;99.90;;;;;;5030014;28;20040;-61
2022/10/27 09:40:23;;;;;;;17.05;10.77;;;16.80;99.90;;;;;;5013903;28;20033;-61
2022/10/27 09:43:09;;;;;;;18.75;12.27;;;16.90;99.90;;;;;;5029810;28;20087;-61
2022/10/27 09:46:16;;;;;;;13.50;9.30;;;17.00;99.90;;;;;;5015412;28;20511;-59
2022/10/27 09:49:04;;;;;;;15.65;8.93;;;17.20;99.90;;;;;;5014771;28;20103;-59
2022/10/27 09:52:00;;;;;;;13.77;8.15;;;17.30;99.90;;;;;;5005360;28;20049;-61
2022/10/27 09:54:52;;;;;;;10.95;7.25;;;17.40;99.90;;;;;;5031011;28;20759;-62
2022/10/27 09:57:40;;;;;;;11.60;7.88;;;17.60;99.90;;;;;;5021841;28;20118;-58
2022/10/27 10:00:27;;;;;;;10.55;6.88;;;17.60;99.90;;;;;;5019660;28;20037;-64
2022/10/27 10:03:20;;;;;;;17.00;7.90;;;17.60;99.90;;;;;;5030152;28;20032;-61
2022/10/27 10:06:28;;;;;;;11.45;7.32;;;17.60;99.90;;;;;;5032472;28;20055;-62
2022/10/27 10:09:38;;;;;;;13.55;7.78;;;17.70;99.90;;;;;;5029088;28;20026;-61
2022/10/27 10:12:25;;;;;;;12.15;7.75;;;17.80;99.90;;;;;;5017697;28;20029;-61
2022/10/27 10:15:11;;;;;;;18.95;11.32;;;17.90;99.90;;;;;;5029740;28;20037;-59
2022/10/27 10:18:00;;;;;;;14.30;9.95;;;17.90;99.90;;;;;;5022053;28;20096;-60
2022/10/27 10:20:56;;;;;;;14.25;9.68;;;18.00;99.90;;;;;;5030165;28;20028;-61
2022/10/27 10:23:50;;;;;;;18.92;10.80;;;18.10;99.90;;;;;;5030546;28;20068;-62
2022/10/27 10:26:36;;;;;;;15.90;11.10;;;18.20;99.90;;;;;;5030467;28;20512;-60
2022/10/27 10:29:31;;;;;;;17.00;12.52;;;18.20;99.90;;;;;;5027216;28;20036;-60
2022/10/27 10:32:30;;;;;;;16.58;11.80;;;18.20;99.90;;;;;;5029691;28;20029;-58
2022/10/27 10:35:42;;;;;;;14.30;11.43;;;18.20;99.90;;;;;;5010563;28;20116;-61
2022/10/27 10:38:33;;;;;;;13.88;10.13;;;18.10;99.90;;;;;;5009565;28;20076;-62
2022/10/27 10:41:20;;;;;;;13.57;8.98;;;18.20;99.90;;;;;;5009496;28;20034;-62
2022/10/27 10:44:08;;;;;;;11.63;7.75;;;18.30;99.90;;;;;;5006791;28;20033;-60
2022/10/27 10:46:56;;;;;;;13.85;10.70;;;18.50;99.90;;;;;;5026496;28;20137;-60
2022/10/27 10:49:49;;;;;;;21.98;18.30;;;18.60;99.90;;;;;;5018164;28;20030;-57
2022/10/27 10:52:38;;;;;;;10.73;7.80;;;18.60;99.90;;;;;;5009374;28;20042;-60
2022/10/27 10:55:32;;;;;;;9.88;7.72;;;18.60;99.90;;;;;;4996841;28;20490;-60
2022/10/27 10:58:21;;;;;;;11.20;7.82;;;18.70;99.90;;;;;;5028001;28;20029;-62
2022/10/27 11:01:07;;;;;;;10.88;6.90;;;18.80;99.90;;;;;;4996044;28;20082;-62
2022/10/27 11:03:55;;;;;;;12.20;7.13;;;18.90;99.90;;;;;;5019784;28;20116;-61
2022/10/27 11:07:14;;;;;;;11.70;5.63;;;18.90;99.90;;;;;;5028710;28;20041;-62
2022/10/27 11:10:00;;;;;;;13.30;7.22;;;19.10;99.90;;;;;;5029344;28;20026;-61
2022/10/27 11:13:01;;;;;;;9.93;6.05;;;19.20;99.90;;;;;;5015117;28;20509;-61
2022/10/27 11:15:56;;;;;;;12.23;6.05;;;19.20;99.90;;;;;;5033064;28;20122;-61
2022/10/27 11:18:50;;;;;;;18.42;7.00;;;19.20;99.90;;;;;;5023813;28;20117;-62
2022/10/27 11:21:52;;;;;;;10.55;6.10;;;19.30;99.90;;;;;;5008866;28;20042;-59
2022/10/27 11:24:48;;;;;;;11.00;6.57;;;19.30;99.90;;;;;;5027108;28;20107;-61
2022/10/27 11:27:54;;;;;;;9.90;5.70;;;19.30;99.90;;;;;;5016461;28;20075;-61
2022/10/27 11:30:47;;;;;;;11.43;6.60;;;19.30;99.90;;;;;;5013179;28;20029;-60
2022/10/27 11:33:49;;;;;;;29.17;26.05;;;19.50;99.90;;;;;;5031123;28;20573;-60
2022/10/27 11:36:53;;;;;;;7.28;4.50;;;19.50;99.90;;;;;;5032091;28;20033;-60
2022/10/27 11:40:08;;;;;;;10.52;4.78;;;19.50;99.90;;;;;;5013812;28;20466;-59
2022/10/27 11:43:04;;;;;;;9.48;5.03;;;19.60;99.90;;;;;;5017253;28;20723;-60
2022/10/27 11:45:57;;;;;;;10.57;5.00;;;19.60;99.90;;;;;;5030326;28;20025;-61
2022/10/27 11:48:52;;;;;;;11.88;4.15;;;19.60;99.90;;;;;;5017175;28;20386;-59
2022/10/27 11:52:03;;;;;;;12.82;4.57;;;19.60;99.90;;;;;;5031295;28;20512;-60
2022/10/27 11:54:49;;;;;;;8.70;4.72;;;19.60;99.90;;;;;;5031206;28;20674;-63
2022/10/27 11:57:53;;;;;;;8.80;4.90;;;19.60;99.90;;;;;;5031654;28;20048;-61
2022/10/27 12:00:58;;;;;;;11.95;5.70;;;19.70;99.90;;;;;;5008932;28;20415;-60
2022/10/27 12:04:03;;;;;;;;;;;19.80;99.90;;;;;;5017753;28;20036;-60
2022/10/27 12:07:06;;;;;;;13.73;5.10;;;19.80;99.90;;;;;;5012757;28;19913;-60
2022/10/27 12:10:23;;;;;;;9.52;5.57;;;19.80;99.90;;;;;;5011873;28;20506;-60
2022/10/27 12:13:17;;;;;;;7.03;5.65;;;19.70;99.90;;;;;;5030723;28;20025;-61
2022/10/27 12:16:23;;;;;;;8.88;6.22;;;19.80;99.90;;;;;;5031140;28;20025;-62
2022/10/27 12:19:22;;;;;;;8.68;5.93;;;19.90;99.90;;;;;;5030302;28;20030;-62
2022/10/27 12:22:25;;;;;;;7.03;5.50;;;19.80;99.90;;;;;;5031239;28;20030;-63
2022/10/27 12:25:32;;;;;;;7.90;6.47;;;19.80;99.90;;;;;;5017971;28;20048;-60
2022/10/27 12:28:21;;;;;;;15.30;7.57;;;19.80;99.90;;;;;;5030905;28;20524;-61
2022/10/27 12:31:14;;;;;;;13.50;8.48;;;20.00;99.90;;;;;;5027341;28;20060;-60
2022/10/27 12:34:02;;;;;;;13.15;7.65;;;20.10;99.90;;;;;;5030621;28;20091;-62
2022/10/27 12:36:58;;;;;;;10.73;6.40;;;20.20;99.90;;;;;;5030554;28;20034;-62
2022/10/27 12:40:18;;;;;;;10.05;6.40;;;20.40;99.90;;;;;;5011229;28;20041;-60
2022/10/27 12:43:31;;;;;;;12.68;5.97;;;20.50;99.90;;;;;;5011922;28;20109;-61
2022/10/27 12:46:44;;;;;;;15.55;6.22;;;20.70;99.90;;;;;;5011836;28;20030;-61
2022/10/27 12:49:47;;;;;;;20.27;10.88;;;20.80;99.80;;;;;;5011857;28;20072;-61
2022/10/27 12:52:47;;;;;;;15.05;7.60;;;20.90;99.60;;;;;;5038999;28;20060;-61
2022/10/27 12:55:50;;;;;;;18.30;6.38;;;21.00;99.50;;;;;;5039287;28;20030;-62
2022/10/27 12:58:48;;;;;;;9.15;5.47;;;21.10;99.10;;;;;;5023939;28;20033;-63
2022/10/27 13:01:43;;;;;;;8.45;5.93;;;21.20;99.10;;;;;;5032275;28;20100;-59
2022/10/27 13:04:34;;;;;;;;;;;21.30;98.90;;;;;;5021656;28;20501;-60
2022/10/27 13:07:33;;;;;;;19.83;6.25;;;21.40;98.20;;;;;;5030408;28;19909;-62
2022/10/27 13:10:43;;;;;;;12.77;8.10;;;21.40;98.10;;;;;;5009983;28;20087;-59
2022/10/27 13:13:52;;;;;;;11.02;5.75;;;21.50;98.10;;;;;;5012839;28;20492;-62
2022/10/27 13:16:41;;;;;;;13.68;5.43;;;21.70;98.00;;;;;;5029253;28;20088;-61
2022/10/27 13:19:29;;;;;;;9.50;5.30;;;21.80;97.60;;;;;;5027861;28;20022;-62
2022/10/27 13:22:45;;;;;;;6.93;4.60;;;21.80;97.40;;;;;;5033626;28;20400;-62
2022/10/27 13:25:45;;;;;;;10.75;6.13;;;21.70;97.50;;;;;;5014931;28;20517;-61
2022/10/27 13:28:46;;;;;;;11.88;5.00;;;22.00;97.40;;;;;;5008178;28;20052;-63
2022/10/27 13:31:32;;;;;;;18.13;5.60;;;22.20;97.10;;;;;;5030624;28;20543;-60
2022/10/27 13:34:19;;;;;;;11.73;4.93;;;22.40;96.80;;;;;;5015517;28;20043;-62
2022/10/27 13:37:37;;;;;;;11.10;4.50;;;22.60;96.40;;;;;;5014424;28;20042;-62
2022/10/27 13:40:26;;;;;;;9.25;4.32;;;22.70;96.10;;;;;;5029379;28;20056;-61
2022/10/27 13:43:21;;;;;;;8.05;4.05;;;22.90;95.70;;;;;;5029756;28;20029;-62
2022/10/27 13:46:07;;;;;;;14.32;4.25;;;23.00;95.70;;;;;;5016195;28;20018;-62
2022/10/27 13:48:53;;;;;;;5.63;3.92;;;23.20;95.30;;;;;;5001568;28;20041;-61
2022/10/27 13:51:40;;;;;;;21.88;5.07;;;23.30;95.00;;;;;;5015932;28;20535;-59
2022/10/27 13:54:52;;;;;;;8.65;4.30;;;23.40;94.80;;;;;;5029191;28;20512;-62
2022/10/27 13:58:08;;;;;;;4.88;3.38;;;23.40;94.50;;;;;;5030485;28;20073;-61
2022/10/27 14:01:19;;;;;;;11.15;4.25;;;23.40;94.50;;;;;;5008480;28;20040;-60
2022/10/27 14:04:21;;;;;;;7.55;3.83;;;23.50;94.50;;;;;;4994749;28;20040;-61
2022/10/27 14:07:12;;;;;;;13.32;4.63;;;23.60;94.40;;;;;;5015165;28;20048;-61
2022/10/27 14:09:58;;;;;;;7.20;4.45;;;23.90;94.20;;;;;;5029567;28;20025;-61
2022/10/27 14:12:46;;;;;;;6.43;3.95;;;24.10;93.70;;;;;;5028608;28;20037;-62
2022/10/27 14:15:33;;;;;;;12.38;8.88;;;24.30;93.50;;;;;;5029339;28;20084;-60
2022/10/27 14:18:30;;;;;;;8.50;7.00;;;24.60;93.20;;;;;;5028651;28;20033;-62
2022/10/27 14:21:23;;;;;;;6.93;4.05;;;25.00;92.80;;;;;;5029327;28;20026;-61
2022/10/27 14:24:23;;;;;;;6.25;3.58;;;25.60;92.00;;;;;;5015131;28;20025;-61
2022/10/27 14:27:15;;;;;;;6.15;3.65;;;26.20;91.30;;;;;;5022175;28;20029;-60
2022/10/27 14:30:12;;;;;;;9.90;6.55;;;26.70;90.30;;;;;;5026766;28;20036;-62
2022/10/27 14:33:32;;;;;;;5.88;4.00;;;27.20;89.40;;;;;;5027412;28;20024;-62
2022/10/27 14:36:23;;;;;;;11.18;4.10;;;27.50;87.80;;;;;;5029924;28;20112;-60
2022/10/27 14:39:12;;;;;;;4.97;3.80;;;27.30;86.40;;;;;;5028954;28;20025;-60